createdAt,value
2022-09-22T00:03:43.636Z,100597.03
2022-09-22T00:08:51.488Z,100580.91
2022-09-22T00:14:01.891Z,100590.00
2022-09-22T00:19:26.909Z,100586.53
2022-09-22T00:24:29.730Z,100582.97
2022-09-22T00:29:31.985Z,100593.03
2022-09-22T00:34:33.765Z,100592.13
2022-09-22T00:39:37.005Z,100578.56
2022-09-22T00:44:40.491Z,100582.69
2022-09-22T00:49:53.887Z,100569.94
2022-09-22T00:55:00.886Z,100565.78
2022-09-22T01:00:06.492Z,100564.97
2022-09-22T01:05:09.141Z,100560.75
2022-09-22T01:10:11.390Z,100559.06
2022-09-22T01:15:13.071Z,100564.03
2022-09-22T01:20:45.335Z,100555.50
2022-09-22T01:26:14.390Z,100549.38
2022-09-22T01:31:38.945Z,100544.63
2022-09-22T01:37:11.631Z,100545.09
2022-09-22T01:42:17.161Z,100541.41
2022-09-22T01:47:23.065Z,100540.88
2022-09-22T01:52:31.125Z,100541.41
2022-09-22T01:57:54.537Z,100528.31
2022-09-22T02:03:10.934Z,100540.88
2022-09-22T02:08:21.805Z,100537.34
2022-09-22T02:13:23.756Z,100541.38
2022-09-22T02:18:30.589Z,100534.41
2022-09-22T02:23:32.596Z,100541.97
2022-09-22T02:28:38.659Z,100538.56
2022-09-22T02:33:41.501Z,100541.16
2022-09-22T02:38:56.296Z,100546.81
2022-09-22T02:44:13.373Z,100537.69
2022-09-22T02:49:18.304Z,100537.25
2022-09-22T02:54:20.424Z,100529.00
2022-09-22T02:59:22.253Z,100536.66
2022-09-22T03:04:24.077Z,100533.41
2022-09-22T03:09:25.896Z,100530.03
2022-09-22T03:14:27.721Z,100534.16
2022-09-22T03:19:29.318Z,100537.28
2022-09-22T03:24:30.941Z,100538.03
2022-09-22T03:29:32.905Z,100539.69
2022-09-22T03:34:35.005Z,100534.63
2022-09-22T03:39:36.592Z,100522.97
2022-09-22T03:44:38.404Z,100518.84
2022-09-22T03:49:40.403Z,100519.63
2022-09-22T03:54:42.099Z,100517.06
2022-09-22T03:59:43.685Z,100506.84
2022-09-22T04:04:45.298Z,100510.88
2022-09-22T04:09:46.921Z,100500.66
2022-09-22T04:14:48.770Z,100500.16
2022-09-22T04:19:50.475Z,100490.56
2022-09-22T04:24:52.393Z,100488.13
2022-09-22T04:29:54.187Z,100481.88
2022-09-22T04:34:55.832Z,100489.31
2022-09-22T04:39:59.181Z,100491.50
2022-09-22T04:45:03.019Z,100488.47
2022-09-22T04:50:05.391Z,100501.38
2022-09-22T04:55:08.184Z,100497.94
2022-09-22T05:00:10.502Z,100504.63
2022-09-22T05:05:12.985Z,100511.47
2022-09-22T05:10:17.897Z,100519.06
2022-09-22T05:15:20.744Z,100529.19
2022-09-22T05:20:22.597Z,100530.88
2022-09-22T05:25:25.285Z,100533.59
2022-09-22T05:30:27.241Z,100529.06
2022-09-22T05:35:32.985Z,100531.28
2022-09-22T05:40:37.585Z,100524.34
2022-09-22T05:45:39.867Z,100532.41
2022-09-22T05:50:43.588Z,100542.50
2022-09-22T05:55:45.396Z,100550.16
2022-09-22T06:00:47.298Z,100550.25
2022-09-22T06:05:49.609Z,100560.13
2022-09-22T06:10:51.520Z,100558.31
2022-09-22T06:15:53.147Z,100563.25
2022-09-22T06:20:56.286Z,100566.47
2022-09-22T06:25:59.235Z,100564.41
2022-09-22T06:31:01.720Z,100568.41
2022-09-22T06:36:07.186Z,100563.00
2022-09-22T06:41:09.481Z,100570.09
2022-09-22T06:46:13.549Z,100562.09
2022-09-22T06:51:15.177Z,100573.44
2022-09-22T06:56:19.730Z,100563.78
2022-09-22T07:01:21.463Z,100559.06
2022-09-22T07:06:23.112Z,100557.69
2022-09-22T07:11:25.050Z,100545.44
2022-09-22T07:16:26.936Z,100550.13
2022-09-22T07:21:34.957Z,100550.38
2022-09-22T07:26:38.986Z,100554.13
2022-09-22T07:31:41.912Z,100544.06
2022-09-22T07:36:45.092Z,100543.13
2022-09-22T07:41:48.040Z,100551.56
2022-09-22T07:46:49.774Z,100556.47
2022-09-22T07:51:55.240Z,100556.50
2022-09-22T07:56:58.800Z,100559.09
2022-09-22T08:02:01.198Z,100544.84
2022-09-22T08:07:03.155Z,100554.16
2022-09-22T08:12:05.458Z,100559.22
2022-09-22T08:17:12.173Z,100558.47
2022-09-22T08:22:13.744Z,100556.75
2022-09-22T08:27:15.336Z,100572.84
2022-09-22T08:32:18.583Z,100562.59
2022-09-22T08:37:20.610Z,100566.00
2022-09-22T08:42:23.471Z,100562.72
2022-09-22T08:48:10.588Z,100562.81
2022-09-22T08:53:16.517Z,100556.19
2022-09-22T08:58:33.508Z,100562.09
2022-09-22T09:04:01.781Z,100554.63
2022-09-22T09:09:27.628Z,100552.22
2022-09-22T09:14:55.972Z,100553.25
2022-09-22T09:20:21.704Z,100548.34
2022-09-22T09:25:35.877Z,100550.03
2022-09-22T09:30:50.148Z,100548.47
2022-09-22T09:35:53.626Z,100551.72
2022-09-22T09:41:36.440Z,100556.13
2022-09-22T09:46:49.383Z,100556.28
2022-09-22T09:51:54.881Z,100553.59
2022-09-22T09:57:09.537Z,100550.34
2022-09-22T10:02:15.136Z,100547.03
2022-09-22T10:07:21.701Z,100534.47
2022-09-22T10:12:29.755Z,100522.66
2022-09-22T10:17:40.215Z,100515.03
2022-09-22T10:22:42.648Z,100531.09
2022-09-22T10:27:58.440Z,100521.81
2022-09-22T10:33:15.053Z,100509.06
2022-09-22T10:38:20.640Z,100515.81
2022-09-22T10:43:37.317Z,100509.00
2022-09-22T10:48:49.586Z,100511.53
2022-09-22T10:54:29.913Z,100497.13
2022-09-22T10:59:55.609Z,100491.13
2022-09-22T11:05:02.763Z,100489.53
2022-09-22T11:10:52.691Z,100475.94
2022-09-22T11:16:11.615Z,100482.50
2022-09-22T11:21:27.427Z,100471.34
2022-09-22T11:26:44.207Z,100462.78
2022-09-22T11:32:24.778Z,100459.28
2022-09-22T11:37:43.162Z,100445.00
2022-09-22T11:43:09.308Z,100445.47
2022-09-22T11:48:29.769Z,100432.47
2022-09-22T11:54:04.917Z,100417.34
2022-09-22T11:59:35.950Z,100413.44
2022-09-22T12:04:46.583Z,100412.97
2022-09-22T12:10:07.082Z,100411.31
2022-09-22T12:15:20.808Z,100415.53
2022-09-22T12:20:30.227Z,100404.16
2022-09-22T12:25:48.646Z,100418.44
2022-09-22T12:30:53.873Z,100393.28
2022-09-22T12:35:56.826Z,100394.00
2022-09-22T12:41:02.873Z,100379.28
2022-09-22T12:46:18.845Z,100375.03
2022-09-22T12:51:26.386Z,100378.91
2022-09-22T12:57:01.961Z,100362.56
2022-09-22T13:02:18.702Z,100381.28
2022-09-22T13:07:41.429Z,100383.72
2022-09-22T13:13:06.175Z,100378.06
2022-09-22T13:18:29.769Z,100380.53
2022-09-22T13:23:31.608Z,100384.81
2022-09-22T13:28:33.506Z,100379.69
2022-09-22T13:33:36.228Z,100377.97
2022-09-22T13:38:43.407Z,100368.59
2022-09-22T13:43:48.741Z,100365.22
2022-09-22T13:48:55.417Z,100363.47
2022-09-22T13:53:57.884Z,100349.97
2022-09-22T13:59:02.889Z,100350.06
2022-09-22T14:04:24.616Z,100349.16
2022-09-22T14:09:26.676Z,100347.47
2022-09-22T14:14:28.984Z,100344.88
2022-09-22T14:19:37.298Z,100341.41
2022-09-22T14:24:47.272Z,100344.75
2022-09-22T14:29:52.488Z,100342.16
2022-09-22T14:35:00.968Z,100341.22
2022-09-22T14:40:07.143Z,100337.03
2022-09-22T14:45:08.906Z,100348.84
2022-09-22T14:50:20.031Z,100350.38
2022-09-22T14:55:39.029Z,100352.00
2022-09-22T15:01:10.431Z,100348.75
2022-09-22T15:06:14.460Z,100359.91
2022-09-22T15:11:16.570Z,100358.16
2022-09-22T15:16:37.233Z,100353.91
2022-09-22T15:21:46.894Z,100349.66
2022-09-22T15:26:48.770Z,100357.31
2022-09-22T15:31:50.392Z,100348.88
2022-09-22T15:36:53.202Z,100347.19
2022-09-22T15:41:55.381Z,100352.31
2022-09-22T15:47:01.243Z,100348.94
2022-09-22T15:52:04.878Z,100353.16
2022-09-22T15:57:06.560Z,100347.25
2022-09-22T16:02:11.804Z,100351.50
2022-09-22T16:07:14.223Z,100357.41
2022-09-22T16:12:17.965Z,100359.16
2022-09-22T16:17:24.616Z,100362.53
2022-09-22T16:22:26.180Z,100366.78
2022-09-22T16:27:29.423Z,100369.38
2022-09-22T16:32:32.489Z,100361.00
2022-09-22T16:37:34.405Z,100357.63
2022-09-22T16:42:39.069Z,100368.63
2022-09-22T16:47:40.714Z,100367.81
2022-09-22T16:52:42.503Z,100361.94
2022-09-22T16:57:44.156Z,100365.34
2022-09-22T17:02:46.829Z,100368.75
2022-09-22T17:07:49.996Z,100373.00
2022-09-22T17:12:52.335Z,100383.97
2022-09-22T17:17:53.862Z,100378.03
2022-09-22T17:22:55.925Z,100394.94
2022-09-22T17:27:57.819Z,100400.84
2022-09-22T17:33:01.362Z,100400.00
2022-09-22T17:38:03.157Z,100394.06
2022-09-22T17:43:05.573Z,100396.56
2022-09-22T17:48:26.580Z,100410.91
2022-09-22T17:53:46.418Z,100410.03
2022-09-22T17:58:48.210Z,100421.81
2022-09-22T18:03:49.911Z,100411.66
2022-09-22T18:08:51.880Z,100425.91
2022-09-22T18:13:56.209Z,100423.28
2022-09-22T18:18:58.287Z,100437.56
2022-09-22T18:24:00.715Z,100434.97
2022-09-22T18:29:04.429Z,100437.44
2022-09-22T18:34:09.804Z,100433.13
2022-09-22T18:39:13.096Z,100441.47
2022-09-22T18:44:18.777Z,100448.97
2022-09-22T18:49:21.582Z,100451.41
2022-09-22T18:54:24.742Z,100452.97
2022-09-22T18:59:28.027Z,100457.06
2022-09-22T19:04:30.189Z,100456.03
2022-09-22T19:09:33.093Z,100453.38
2022-09-22T19:14:39.267Z,100457.50
2022-09-22T19:19:42.231Z,100460.69
2022-09-22T19:24:48.203Z,100462.25
2022-09-22T19:29:50.673Z,100457.84
2022-09-22T19:34:54.779Z,100462.75
2022-09-22T19:39:56.803Z,100467.66
2022-09-22T19:44:59.196Z,100475.94
2022-09-22T19:50:00.990Z,100483.09
2022-09-22T19:55:02.630Z,100477.97
2022-09-22T20:00:08.807Z,100472.81
2022-09-22T20:05:22.114Z,100478.56
2022-09-22T20:10:24.305Z,100480.06
2022-09-22T20:15:27.543Z,100482.47
2022-09-22T20:20:31.742Z,100485.78
2022-09-22T20:25:33.599Z,100488.28
2022-09-22T20:30:35.271Z,100503.19
2022-09-22T20:35:36.869Z,100490.25
2022-09-22T20:40:39.438Z,100503.69
2022-09-22T20:45:42.905Z,100507.81
2022-09-22T20:51:02.722Z,100506.84
2022-09-22T20:56:12.002Z,100505.13
2022-09-22T21:01:15.211Z,100499.13
2022-09-22T21:06:18.072Z,100498.22
2022-09-22T21:11:20.304Z,100503.09
2022-09-22T21:16:22.923Z,100506.38
2022-09-22T21:21:24.732Z,100507.91
2022-09-22T21:26:26.495Z,100499.41
2022-09-22T21:31:28.412Z,100497.69
2022-09-22T21:36:30.256Z,100485.88
2022-09-22T21:41:32.301Z,100495.09
2022-09-22T21:46:41.096Z,100493.41
2022-09-22T21:51:44.404Z,100490.03
2022-09-22T21:56:46.549Z,100485.66
2022-09-22T22:01:48.532Z,100486.31
2022-09-22T22:06:50.627Z,100478.56
2022-09-22T22:11:58.022Z,100483.50
2022-09-22T22:17:02.103Z,100477.41
2022-09-22T22:22:04.233Z,100486.38
2022-09-22T22:27:09.891Z,100471.25
2022-09-22T22:32:11.780Z,100471.94
2022-09-22T22:37:13.558Z,100461.53
2022-09-22T22:42:15.110Z,100464.78
2022-09-22T22:47:17.345Z,100463.66
2022-09-22T22:52:19.300Z,100466.28
2022-09-22T22:57:21.401Z,100457.88
2022-09-22T23:02:23.596Z,100447.78
2022-09-22T23:07:25.278Z,100450.19
2022-09-22T23:12:27.102Z,100446.78
2022-09-22T23:17:28.676Z,100453.25
2022-09-22T23:22:30.633Z,100450.59
2022-09-22T23:27:33.024Z,100443.13
2022-09-22T23:32:34.606Z,100436.41
2022-09-22T23:37:36.633Z,100432.13
2022-09-22T23:42:38.457Z,100426.22
2022-09-22T23:47:40.229Z,100429.56
2022-09-22T23:52:41.988Z,100421.94
2022-09-22T23:57:43.572Z,100425.84
